sensor_id;sensor_type;location;lat;lon;timestamp;temperature;humidity
73576;DHT22;61859;49.204;8.140;2023-12-20T00:00:17;4.90;99.90
73576;DHT22;61859;49.204;8.140;2023-12-20T00:02:42;5.10;99.90
73576;DHT22;61859;49.204;8.140;2023-12-20T00:05:13;5.00;99.90
73576;DHT22;61859;49.204;8.140;2023-12-20T00:07:38;5.00;99.90
73576;DHT22;61859;49.204;8.140;2023-12-20T00:10:04;5.10;99.90
73576;DHT22;61859;49.204;8.140;2023-12-20T00:12:30;5.00;99.90
73576;DHT22;61859;49.204;8.140;2023-12-20T00:14:55;5.00;99.90
73576;DHT22;61859;49.204;8.140;2023-12-20T00:17:21;5.10;99.90
73576;DHT22;61859;49.204;8.140;2023-12-20T00:19:46;5.20;99.90
73576;DHT22;61859;49.204;8.140;2023-12-20T00:22:12;5.10;99.90
73576;DHT22;61859;49.204;8.140;2023-12-20T00:24:37;5.00;99.90
73576;DHT22;61859;49.204;8.140;2023-12-20T00:27:03;4.90;99.90
73576;DHT22;61859;49.204;8.140;2023-12-20T00:29:28;5.10;99.90
73576;DHT22;61859;49.204;8.140;2023-12-20T00:31:54;5.00;99.90
73576;DHT22;61859;49.204;8.140;2023-12-20T00:34:19;5.20;99.90
73576;DHT22;61859;49.204;8.140;2023-12-20T00:36:45;5.00;99.90
73576;DHT22;61859;49.204;8.140;2023-12-20T00:39:10;5.00;99.90
73576;DHT22;61859;49.204;8.140;2023-12-20T00:41:36;5.20;99.90
73576;DHT22;61859;49.204;8.140;2023-12-20T00:44:02;5.10;99.90
73576;DHT22;61859;49.204;8.140;2023-12-20T00:46:28;5.10;99.90
73576;DHT22;61859;49.204;8.140;2023-12-20T00:48:53;5.20;99.90
73576;DHT22;61859;49.204;8.140;2023-12-20T00:51:19;5.20;99.90
73576;DHT22;61859;49.204;8.140;2023-12-20T00:53:44;5.00;99.90
73576;DHT22;61859;49.204;8.140;2023-12-20T00:56:11;5.20;99.90
73576;DHT22;61859;49.204;8.140;2023-12-20T00:58:37;5.20;99.90
73576;DHT22;61859;49.204;8.140;2023-12-20T01:01:02;5.20;99.90
73576;DHT22;61859;49.204;8.140;2023-12-20T01:03:28;5.20;99.90
73576;DHT22;61859;49.204;8.140;2023-12-20T01:05:54;5.20;99.90
73576;DHT22;61859;49.204;8.140;2023-12-20T01:08:19;5.00;99.90
73576;DHT22;61859;49.204;8.140;2023-12-20T01:10:45;5.10;99.90
73576;DHT22;61859;49.204;8.140;2023-12-20T01:13:12;5.20;99.90
73576;DHT22;61859;49.204;8.140;2023-12-20T01:15:37;5.10;99.90
73576;DHT22;61859;49.204;8.140;2023-12-20T01:18:03;5.00;99.90
73576;DHT22;61859;49.204;8.140;2023-12-20T01:20:28;5.20;99.90
73576;DHT22;61859;49.204;8.140;2023-12-20T01:22:54;5.00;99.90
73576;DHT22;61859;49.204;8.140;2023-12-20T01:25:20;5.00;99.90
73576;DHT22;61859;49.204;8.140;2023-12-20T01:27:45;5.10;99.90
73576;DHT22;61859;49.204;8.140;2023-12-20T01:30:11;5.10;99.90
73576;DHT22;61859;49.204;8.140;2023-12-20T01:32:36;5.20;99.90
73576;DHT22;61859;49.204;8.140;2023-12-20T01:35:02;5.10;99.90
73576;DHT22;61859;49.204;8.140;2023-12-20T01:37:27;5.10;99.90
73576;DHT22;61859;49.204;8.140;2023-12-20T01:39:54;5.00;99.90
73576;DHT22;61859;49.204;8.140;2023-12-20T01:42:20;5.10;99.90
73576;DHT22;61859;49.204;8.140;2023-12-20T01:44:45;5.30;99.90
73576;DHT22;61859;49.204;8.140;2023-12-20T01:47:11;5.20;99.90
73576;DHT22;61859;49.204;8.140;2023-12-20T01:49:37;5.20;99.90
73576;DHT22;61859;49.204;8.140;2023-12-20T01:52:03;5.20;99.90
73576;DHT22;61859;49.204;8.140;2023-12-20T01:54:29;5.30;99.90
73576;DHT22;61859;49.204;8.140;2023-12-20T01:56:55;5.20;99.90
73576;DHT22;61859;49.204;8.140;2023-12-20T01:59:21;5.10;99.90
73576;DHT22;61859;49.204;8.140;2023-12-20T02:01:47;5.30;99.90
73576;DHT22;61859;49.204;8.140;2023-12-20T02:04:13;5.20;99.90
73576;DHT22;61859;49.204;8.140;2023-12-20T02:06:40;5.20;99.90
73576;DHT22;61859;49.204;8.140;2023-12-20T02:09:06;5.20;99.90
73576;DHT22;61859;49.204;8.140;2023-12-20T02:11:33;5.30;99.90
73576;DHT22;61859;49.204;8.140;2023-12-20T02:13:58;5.30;99.90
73576;DHT22;61859;49.204;8.140;2023-12-20T02:16:24;5.10;99.90
73576;DHT22;61859;49.204;8.140;2023-12-20T02:18:50;5.20;99.90
73576;DHT22;61859;49.204;8.140;2023-12-20T02:21:15;5.30;99.90
73576;DHT22;61859;49.204;8.140;2023-12-20T02:23:41;5.20;99.90
73576;DHT22;61859;49.204;8.140;2023-12-20T02:26:07;5.20;99.90
73576;DHT22;61859;49.204;8.140;2023-12-20T02:28:32;5.20;99.90
73576;DHT22;61859;49.204;8.140;2023-12-20T02:30:58;5.40;99.90
73576;DHT22;61859;49.204;8.140;2023-12-20T02:33:24;5.40;99.90
73576;DHT22;61859;49.204;8.140;2023-12-20T02:35:49;5.20;99.90
73576;DHT22;61859;49.204;8.140;2023-12-20T02:38:15;5.30;99.90
73576;DHT22;61859;49.204;8.140;2023-12-20T02:40:41;5.30;99.90
73576;DHT22;61859;49.204;8.140;2023-12-20T02:43:06;5.40;99.90
73576;DHT22;61859;49.204;8.140;2023-12-20T02:45:32;5.30;99.90
73576;DHT22;61859;49.204;8.140;2023-12-20T02:47:57;5.20;99.90
73576;DHT22;61859;49.204;8.140;2023-12-20T02:50:23;5.30;99.90
73576;DHT22;61859;49.204;8.140;2023-12-20T02:52:48;5.30;99.90
73576;DHT22;61859;49.204;8.140;2023-12-20T02:55:14;5.30;99.90
73576;DHT22;61859;49.204;8.140;2023-12-20T02:57:39;5.40;99.90
73576;DHT22;61859;49.204;8.140;2023-12-20T03:00:09;5.30;99.90
73576;DHT22;61859;49.204;8.140;2023-12-20T03:02:35;5.20;99.90
73576;DHT22;61859;49.204;8.140;2023-12-20T03:05:01;5.30;99.90
73576;DHT22;61859;49.204;8.140;2023-12-20T03:07:26;5.20;99.90
73576;DHT22;61859;49.204;8.140;2023-12-20T03:09:52;5.20;99.90
73576;DHT22;61859;49.204;8.140;2023-12-20T03:12:17;5.10;99.90
73576;DHT22;61859;49.204;8.140;2023-12-20T03:14:44;5.30;99.90
73576;DHT22;61859;49.204;8.140;2023-12-20T03:17:10;5.30;99.90
73576;DHT22;61859;49.204;8.140;2023-12-20T03:19:35;5.20;99.90
73576;DHT22;61859;49.204;8.140;2023-12-20T03:22:01;5.10;99.90
73576;DHT22;61859;49.204;8.140;2023-12-20T03:24:26;5.40;99.90
73576;DHT22;61859;49.204;8.140;2023-12-20T03:26:52;5.30;99.90
73576;DHT22;61859;49.204;8.140;2023-12-20T03:29:17;5.30;99.90
73576;DHT22;61859;49.204;8.140;2023-12-20T03:31:43;5.40;99.90
73576;DHT22;61859;49.204;8.140;2023-12-20T03:34:08;5.30;99.90
73576;DHT22;61859;49.204;8.140;2023-12-20T03:36:34;5.40;99.90
73576;DHT22;61859;49.204;8.140;2023-12-20T03:39:00;5.50;99.90
73576;DHT22;61859;49.204;8.140;2023-12-20T03:41:25;5.30;99.90
73576;DHT22;61859;49.204;8.140;2023-12-20T03:43:51;5.30;99.90
73576;DHT22;61859;49.204;8.140;2023-12-20T03:46:16;5.30;99.90
73576;DHT22;61859;49.204;8.140;2023-12-20T03:48:42;5.30;99.90
73576;DHT22;61859;49.204;8.140;2023-12-20T03:51:07;5.40;99.90
73576;DHT22;61859;49.204;8.140;2023-12-20T03:53:33;5.30;99.90
73576;DHT22;61859;49.204;8.140;2023-12-20T03:55:59;5.30;99.90
73576;DHT22;61859;49.204;8.140;2023-12-20T03:58:24;5.30;99.90
73576;DHT22;61859;49.204;8.140;2023-12-20T04:00:50;5.40;99.90
73576;DHT22;61859;49.204;8.140;2023-12-20T04:03:15;5.30;99.90
73576;DHT22;61859;49.204;8.140;2023-12-20T04:05:41;5.40;99.90
73576;DHT22;61859;49.204;8.140;2023-12-20T04:08:07;5.30;99.90
73576;DHT22;61859;49.204;8.140;2023-12-20T04:10:33;5.20;99.90
73576;DHT22;61859;49.204;8.140;2023-12-20T04:12:58;5.40;99.90
73576;DHT22;61859;49.204;8.140;2023-12-20T04:15:24;5.30;99.90
73576;DHT22;61859;49.204;8.140;2023-12-20T04:17:49;5.30;99.90
73576;DHT22;61859;49.204;8.140;2023-12-20T04:20:15;5.40;99.90
73576;DHT22;61859;49.204;8.140;2023-12-20T04:22:40;5.30;99.90
73576;DHT22;61859;49.204;8.140;2023-12-20T04:25:08;5.50;99.90
73576;DHT22;61859;49.204;8.140;2023-12-20T04:27:33;5.40;99.90
73576;DHT22;61859;49.204;8.140;2023-12-20T04:29:59;5.40;99.90
73576;DHT22;61859;49.204;8.140;2023-12-20T04:32:24;5.40;99.90
73576;DHT22;61859;49.204;8.140;2023-12-20T04:34:50;5.50;99.90
73576;DHT22;61859;49.204;8.140;2023-12-20T04:37:16;5.50;99.90
73576;DHT22;61859;49.204;8.140;2023-12-20T04:39:41;5.50;99.90
73576;DHT22;61859;49.204;8.140;2023-12-20T04:42:07;5.50;99.90
73576;DHT22;61859;49.204;8.140;2023-12-20T04:44:33;5.50;99.90
73576;DHT22;61859;49.204;8.140;2023-12-20T04:46:58;5.40;99.90
73576;DHT22;61859;49.204;8.140;2023-12-20T04:49:24;5.50;99.90
73576;DHT22;61859;49.204;8.140;2023-12-20T04:51:50;5.50;99.90
73576;DHT22;61859;49.204;8.140;2023-12-20T04:54:15;5.40;99.90
73576;DHT22;61859;49.204;8.140;2023-12-20T04:56:41;5.60;99.90
73576;DHT22;61859;49.204;8.140;2023-12-20T04:59:07;5.70;99.90
73576;DHT22;61859;49.204;8.140;2023-12-20T05:01:32;5.50;99.90
73576;DHT22;61859;49.204;8.140;2023-12-20T05:03:58;5.50;99.90
73576;DHT22;61859;49.204;8.140;2023-12-20T05:06:23;5.50;99.90
73576;DHT22;61859;49.204;8.140;2023-12-20T05:08:50;5.50;99.90
73576;DHT22;61859;49.204;8.140;2023-12-20T05:11:15;5.20;99.90
73576;DHT22;61859;49.204;8.140;2023-12-20T05:13:41;5.30;99.90
73576;DHT22;61859;49.204;8.140;2023-12-20T05:16:06;5.30;99.90
73576;DHT22;61859;49.204;8.140;2023-12-20T05:18:32;5.40;99.90
73576;DHT22;61859;49.204;8.140;2023-12-20T05:20:58;5.40;99.90
73576;DHT22;61859;49.204;8.140;2023-12-20T05:23:23;5.60;99.90
73576;DHT22;61859;49.204;8.140;2023-12-20T05:25:49;5.70;99.90
73576;DHT22;61859;49.204;8.140;2023-12-20T05:28:15;5.60;99.90
73576;DHT22;61859;49.204;8.140;2023-12-20T05:30:40;5.90;99.90
73576;DHT22;61859;49.204;8.140;2023-12-20T05:33:06;5.70;99.90
73576;DHT22;61859;49.204;8.140;2023-12-20T05:35:31;5.80;99.90
73576;DHT22;61859;49.204;8.140;2023-12-20T05:37:57;5.70;99.90
73576;DHT22;61859;49.204;8.140;2023-12-20T05:40:22;5.90;99.90
73576;DHT22;61859;49.204;8.140;2023-12-20T05:42:49;5.80;99.90
73576;DHT22;61859;49.204;8.140;2023-12-20T05:45:15;5.80;99.90
73576;DHT22;61859;49.204;8.140;2023-12-20T05:47:40;5.90;99.90
73576;DHT22;61859;49.204;8.140;2023-12-20T05:50:06;5.90;99.90
73576;DHT22;61859;49.204;8.140;2023-12-20T05:52:32;5.80;99.90
73576;DHT22;61859;49.204;8.140;2023-12-20T05:54:57;5.70;99.90
73576;DHT22;61859;49.204;8.140;2023-12-20T05:57:26;5.60;99.90
73576;DHT22;61859;49.204;8.140;2023-12-20T05:59:52;5.40;99.90
73576;DHT22;61859;49.204;8.140;2023-12-20T06:02:18;5.40;99.90
73576;DHT22;61859;49.204;8.140;2023-12-20T06:04:43;5.50;99.90
73576;DHT22;61859;49.204;8.140;2023-12-20T06:07:12;5.50;99.90
73576;DHT22;61859;49.204;8.140;2023-12-20T06:09:37;5.30;99.90
73576;DHT22;61859;49.204;8.140;2023-12-20T06:12:03;5.20;99.90
73576;DHT22;61859;49.204;8.140;2023-12-20T06:14:28;5.20;99.90
73576;DHT22;61859;49.204;8.140;2023-12-20T06:16:56;5.30;99.90
73576;DHT22;61859;49.204;8.140;2023-12-20T06:19:21;5.00;99.90
73576;DHT22;61859;49.204;8.140;2023-12-20T06:21:47;5.30;99.90
73576;DHT22;61859;49.204;8.140;2023-12-20T06:24:13;5.30;99.90
73576;DHT22;61859;49.204;8.140;2023-12-20T06:26:38;5.20;99.90
73576;DHT22;61859;49.204;8.140;2023-12-20T06:29:04;5.00;99.90
73576;DHT22;61859;49.204;8.140;2023-12-20T06:31:29;5.20;99.90
73576;DHT22;61859;49.204;8.140;2023-12-20T06:33:55;5.10;99.90
73576;DHT22;61859;49.204;8.140;2023-12-20T06:36:23;4.80;99.90
73576;DHT22;61859;49.204;8.140;2023-12-20T06:38:49;4.90;99.90
73576;DHT22;61859;49.204;8.140;2023-12-20T06:41:16;5.00;99.90
73576;DHT22;61859;49.204;8.140;2023-12-20T06:43:42;4.90;99.90
73576;DHT22;61859;49.204;8.140;2023-12-20T06:46:07;4.90;99.90
73576;DHT22;61859;49.204;8.140;2023-12-20T06:48:34;5.00;99.90
73576;DHT22;61859;49.204;8.140;2023-12-20T06:51:00;5.00;99.90
73576;DHT22;61859;49.204;8.140;2023-12-20T06:53:27;4.80;99.90
73576;DHT22;61859;49.204;8.140;2023-12-20T06:55:53;4.80;99.90
73576;DHT22;61859;49.204;8.140;2023-12-20T06:58:18;4.70;99.90
73576;DHT22;61859;49.204;8.140;2023-12-20T07:00:44;4.70;99.90
73576;DHT22;61859;49.204;8.140;2023-12-20T07:03:09;4.80;99.90
73576;DHT22;61859;49.204;8.140;2023-12-20T07:05:35;4.60;99.90
73576;DHT22;61859;49.204;8.140;2023-12-20T07:08:01;4.70;99.90
73576;DHT22;61859;49.204;8.140;2023-12-20T07:10:26;4.60;99.90
73576;DHT22;61859;49.204;8.140;2023-12-20T07:12:52;4.70;99.90
73576;DHT22;61859;49.204;8.140;2023-12-20T07:15:21;4.60;99.90
73576;DHT22;61859;49.204;8.140;2023-12-20T07:17:46;4.40;99.90
73576;DHT22;61859;49.204;8.140;2023-12-20T07:20:12;4.40;99.90
73576;DHT22;61859;49.204;8.140;2023-12-20T07:22:38;4.60;99.90
73576;DHT22;61859;49.204;8.140;2023-12-20T07:25:03;4.30;99.90
73576;DHT22;61859;49.204;8.140;2023-12-20T07:27:29;4.40;99.90
73576;DHT22;61859;49.204;8.140;2023-12-20T07:29:55;4.20;99.90
73576;DHT22;61859;49.204;8.140;2023-12-20T07:32:20;4.30;99.90
73576;DHT22;61859;49.204;8.140;2023-12-20T07:34:46;4.20;99.90
73576;DHT22;61859;49.204;8.140;2023-12-20T07:37:11;4.20;99.90
73576;DHT22;61859;49.204;8.140;2023-12-20T07:39:40;4.20;99.90
73576;DHT22;61859;49.204;8.140;2023-12-20T07:42:06;4.20;99.90
73576;DHT22;61859;49.204;8.140;2023-12-20T07:44:32;4.40;99.90
73576;DHT22;61859;49.204;8.140;2023-12-20T07:46:58;4.30;99.90
73576;DHT22;61859;49.204;8.140;2023-12-20T07:49:24;4.20;99.90
73576;DHT22;61859;49.204;8.140;2023-12-20T07:51:49;4.60;99.90
73576;DHT22;61859;49.204;8.140;2023-12-20T07:54:15;4.50;99.90
73576;DHT22;61859;49.204;8.140;2023-12-20T07:56:41;4.40;99.90
73576;DHT22;61859;49.204;8.140;2023-12-20T07:59:06;4.60;99.90
73576;DHT22;61859;49.204;8.140;2023-12-20T08:01:32;4.60;99.90
73576;DHT22;61859;49.204;8.140;2023-12-20T08:03:57;4.60;99.90
73576;DHT22;61859;49.204;8.140;2023-12-20T08:06:23;4.70;99.90
73576;DHT22;61859;49.204;8.140;2023-12-20T08:08:49;4.60;99.90
73576;DHT22;61859;49.204;8.140;2023-12-20T08:11:14;4.60;99.90
73576;DHT22;61859;49.204;8.140;2023-12-20T08:13:40;4.80;99.90
73576;DHT22;61859;49.204;8.140;2023-12-20T08:16:05;5.00;99.90
73576;DHT22;61859;49.204;8.140;2023-12-20T08:18:31;5.00;99.90
73576;DHT22;61859;49.204;8.140;2023-12-20T08:20:56;4.90;99.50
73576;DHT22;61859;49.204;8.140;2023-12-20T08:23:22;4.90;99.50
73576;DHT22;61859;49.204;8.140;2023-12-20T08:25:47;5.00;98.70
73576;DHT22;61859;49.204;8.140;2023-12-20T08:28:13;5.10;98.50
73576;DHT22;61859;49.204;8.140;2023-12-20T08:30:39;5.00;98.30
73576;DHT22;61859;49.204;8.140;2023-12-20T08:33:06;4.80;98.10
73576;DHT22;61859;49.204;8.140;2023-12-20T08:35:36;5.20;98.00
73576;DHT22;61859;49.204;8.140;2023-12-20T08:38:02;5.00;97.40
73576;DHT22;61859;49.204;8.140;2023-12-20T08:40:29;5.10;97.70
73576;DHT22;61859;49.204;8.140;2023-12-20T08:42:55;5.00;97.50
73576;DHT22;61859;49.204;8.140;2023-12-20T08:45:20;5.10;97.40
73576;DHT22;61859;49.204;8.140;2023-12-20T08:47:46;5.10;97.50
73576;DHT22;61859;49.204;8.140;2023-12-20T08:50:12;5.10;97.40
73576;DHT22;61859;49.204;8.140;2023-12-20T08:52:37;5.30;97.50
73576;DHT22;61859;49.204;8.140;2023-12-20T08:55:03;5.20;96.90
73576;DHT22;61859;49.204;8.140;2023-12-20T08:57:29;5.20;96.70
73576;DHT22;61859;49.204;8.140;2023-12-20T08:59:55;5.10;97.30
73576;DHT22;61859;49.204;8.140;2023-12-20T09:02:20;5.20;97.40
73576;DHT22;61859;49.204;8.140;2023-12-20T09:04:46;5.20;97.30
73576;DHT22;61859;49.204;8.140;2023-12-20T09:07:24;5.30;97.20
73576;DHT22;61859;49.204;8.140;2023-12-20T09:09:51;5.20;97.50
73576;DHT22;61859;49.204;8.140;2023-12-20T09:12:20;5.20;97.50
73576;DHT22;61859;49.204;8.140;2023-12-20T09:14:50;5.30;97.80
73576;DHT22;61859;49.204;8.140;2023-12-20T09:17:19;5.20;97.80
73576;DHT22;61859;49.204;8.140;2023-12-20T09:19:45;5.30;97.80
73576;DHT22;61859;49.204;8.140;2023-12-20T09:22:11;5.30;98.00
73576;DHT22;61859;49.204;8.140;2023-12-20T09:24:37;5.00;97.90
73576;DHT22;61859;49.204;8.140;2023-12-20T09:27:04;5.20;97.80
73576;DHT22;61859;49.204;8.140;2023-12-20T09:29:31;5.20;97.80
73576;DHT22;61859;49.204;8.140;2023-12-20T09:31:56;5.10;97.60
73576;DHT22;61859;49.204;8.140;2023-12-20T09:34:23;5.20;97.50
73576;DHT22;61859;49.204;8.140;2023-12-20T09:36:48;5.10;97.60
73576;DHT22;61859;49.204;8.140;2023-12-20T09:39:14;5.20;97.10
73576;DHT22;61859;49.204;8.140;2023-12-20T09:41:43;5.30;97.00
73576;DHT22;61859;49.204;8.140;2023-12-20T09:44:16;5.50;96.60
73576;DHT22;61859;49.204;8.140;2023-12-20T09:46:45;5.50;96.50
73576;DHT22;61859;49.204;8.140;2023-12-20T09:49:14;5.60;96.60
73576;DHT22;61859;49.204;8.140;2023-12-20T09:51:41;5.70;96.40
73576;DHT22;61859;49.204;8.140;2023-12-20T09:54:07;5.70;96.40
73576;DHT22;61859;49.204;8.140;2023-12-20T09:56:33;5.80;95.90
73576;DHT22;61859;49.204;8.140;2023-12-20T09:58:59;6.00;95.30
73576;DHT22;61859;49.204;8.140;2023-12-20T10:01:25;6.10;95.10
73576;DHT22;61859;49.204;8.140;2023-12-20T10:03:54;6.00;94.50
73576;DHT22;61859;49.204;8.140;2023-12-20T10:06:20;6.20;94.50
73576;DHT22;61859;49.204;8.140;2023-12-20T10:08:46;6.30;92.70
73576;DHT22;61859;49.204;8.140;2023-12-20T10:11:12;6.00;91.90
73576;DHT22;61859;49.204;8.140;2023-12-20T10:13:41;6.20;92.60
73576;DHT22;61859;49.204;8.140;2023-12-20T10:16:07;6.10;92.70
73576;DHT22;61859;49.204;8.140;2023-12-20T10:18:35;6.00;93.20
73576;DHT22;61859;49.204;8.140;2023-12-20T10:21:01;5.90;93.20
73576;DHT22;61859;49.204;8.140;2023-12-20T10:23:28;6.10;93.70
73576;DHT22;61859;49.204;8.140;2023-12-20T10:26:00;6.00;93.10
73576;DHT22;61859;49.204;8.140;2023-12-20T10:28:26;6.10;91.70
73576;DHT22;61859;49.204;8.140;2023-12-20T10:30:54;6.30;91.80
73576;DHT22;61859;49.204;8.140;2023-12-20T10:33:24;6.60;90.90
73576;DHT22;61859;49.204;8.140;2023-12-20T10:35:51;6.80;90.80
73576;DHT22;61859;49.204;8.140;2023-12-20T10:38:17;6.90;90.20
73576;DHT22;61859;49.204;8.140;2023-12-20T10:40:45;7.00;89.60
73576;DHT22;61859;49.204;8.140;2023-12-20T10:43:11;7.00;90.40
73576;DHT22;61859;49.204;8.140;2023-12-20T10:45:37;7.00;90.60
73576;DHT22;61859;49.204;8.140;2023-12-20T10:48:03;7.00;90.50
73576;DHT22;61859;49.204;8.140;2023-12-20T10:50:30;7.10;90.00
73576;DHT22;61859;49.204;8.140;2023-12-20T10:52:57;6.90;90.30
73576;DHT22;61859;49.204;8.140;2023-12-20T10:55:23;6.80;90.80
73576;DHT22;61859;49.204;8.140;2023-12-20T10:57:52;6.70;90.80
73576;DHT22;61859;49.204;8.140;2023-12-20T11:00:18;6.80;91.50
73576;DHT22;61859;49.204;8.140;2023-12-20T11:02:45;6.60;91.60
73576;DHT22;61859;49.204;8.140;2023-12-20T11:08:07;6.80;92.00
73576;DHT22;61859;49.204;8.140;2023-12-20T11:11:04;6.70;92.50
73576;DHT22;61859;49.204;8.140;2023-12-20T11:14:03;6.70;92.30
73576;DHT22;61859;49.204;8.140;2023-12-20T11:16:33;6.70;92.90
73576;DHT22;61859;49.204;8.140;2023-12-20T11:19:04;6.50;92.80
73576;DHT22;61859;49.204;8.140;2023-12-20T11:21:31;6.70;92.40
73576;DHT22;61859;49.204;8.140;2023-12-20T11:23:56;6.60;92.70
73576;DHT22;61859;49.204;8.140;2023-12-20T11:26:31;6.60;92.90
73576;DHT22;61859;49.204;8.140;2023-12-20T11:29:31;6.60;93.30
73576;DHT22;61859;49.204;8.140;2023-12-20T11:31:59;6.50;94.10
73576;DHT22;61859;49.204;8.140;2023-12-20T11:34:27;6.40;94.70
73576;DHT22;61859;49.204;8.140;2023-12-20T11:36:57;6.30;95.40
73576;DHT22;61859;49.204;8.140;2023-12-20T11:39:26;6.20;94.90
73576;DHT22;61859;49.204;8.140;2023-12-20T11:41:52;6.00;96.00
73576;DHT22;61859;49.204;8.140;2023-12-20T11:44:19;6.20;96.60
73576;DHT22;61859;49.204;8.140;2023-12-20T11:46:44;6.40;95.40
73576;DHT22;61859;49.204;8.140;2023-12-20T11:49:10;6.20;95.60
73576;DHT22;61859;49.204;8.140;2023-12-20T11:51:35;6.30;95.30
73576;DHT22;61859;49.204;8.140;2023-12-20T11:54:05;6.40;95.00
73576;DHT22;61859;49.204;8.140;2023-12-20T11:56:31;6.40;95.00
73576;DHT22;61859;49.204;8.140;2023-12-20T11:58:56;6.50;94.30
73576;DHT22;61859;49.204;8.140;2023-12-20T12:01:22;6.50;94.50
73576;DHT22;61859;49.204;8.140;2023-12-20T12:03:47;6.70;92.70
73576;DHT22;61859;49.204;8.140;2023-12-20T12:06:13;6.60;93.20
73576;DHT22;61859;49.204;8.140;2023-12-20T12:08:39;6.70;93.20
73576;DHT22;61859;49.204;8.140;2023-12-20T12:11:04;6.50;93.30
73576;DHT22;61859;49.204;8.140;2023-12-20T12:13:30;6.60;93.00
73576;DHT22;61859;49.204;8.140;2023-12-20T12:15:55;6.60;92.90
73576;DHT22;61859;49.204;8.140;2023-12-20T12:18:21;6.60;92.90
73576;DHT22;61859;49.204;8.140;2023-12-20T12:20:47;6.50;92.80
73576;DHT22;61859;49.204;8.140;2023-12-20T12:23:12;6.50;92.90
73576;DHT22;61859;49.204;8.140;2023-12-20T12:25:38;6.50;92.10
73576;DHT22;61859;49.204;8.140;2023-12-20T12:28:03;6.50;92.20
73576;DHT22;61859;49.204;8.140;2023-12-20T12:30:29;6.50;92.00
73576;DHT22;61859;49.204;8.140;2023-12-20T12:32:56;6.40;92.60
73576;DHT22;61859;49.204;8.140;2023-12-20T12:35:23;6.40;92.20
73576;DHT22;61859;49.204;8.140;2023-12-20T12:37:48;6.40;92.30
73576;DHT22;61859;49.204;8.140;2023-12-20T12:40:15;6.40;92.30
73576;DHT22;61859;49.204;8.140;2023-12-20T12:42:43;6.30;92.20
73576;DHT22;61859;49.204;8.140;2023-12-20T12:45:09;6.50;92.70
73576;DHT22;61859;49.204;8.140;2023-12-20T12:47:35;6.50;92.10
73576;DHT22;61859;49.204;8.140;2023-12-20T12:50:01;6.50;91.50
73576;DHT22;61859;49.204;8.140;2023-12-20T12:52:26;6.50;91.40
73576;DHT22;61859;49.204;8.140;2023-12-20T12:54:52;6.50;91.90
73576;DHT22;61859;49.204;8.140;2023-12-20T12:57:18;6.50;91.60
73576;DHT22;61859;49.204;8.140;2023-12-20T12:59:44;6.60;91.80
73576;DHT22;61859;49.204;8.140;2023-12-20T13:02:13;6.60;91.20
73576;DHT22;61859;49.204;8.140;2023-12-20T13:04:42;6.60;91.40
73576;DHT22;61859;49.204;8.140;2023-12-20T13:07:09;6.70;91.30
73576;DHT22;61859;49.204;8.140;2023-12-20T13:09:38;6.70;90.60
73576;DHT22;61859;49.204;8.140;2023-12-20T13:12:05;6.70;90.50
73576;DHT22;61859;49.204;8.140;2023-12-20T13:14:33;6.60;91.00
73576;DHT22;61859;49.204;8.140;2023-12-20T13:17:00;6.80;91.30
73576;DHT22;61859;49.204;8.140;2023-12-20T13:19:25;6.70;90.20
73576;DHT22;61859;49.204;8.140;2023-12-20T13:21:51;6.60;90.20
73576;DHT22;61859;49.204;8.140;2023-12-20T13:24:16;6.60;90.10
73576;DHT22;61859;49.204;8.140;2023-12-20T13:26:42;6.70;90.50
73576;DHT22;61859;49.204;8.140;2023-12-20T13:29:08;6.80;90.90
73576;DHT22;61859;49.204;8.140;2023-12-20T13:31:33;6.70;90.70
73576;DHT22;61859;49.204;8.140;2023-12-20T13:33:59;6.70;91.20
73576;DHT22;61859;49.204;8.140;2023-12-20T13:36:25;6.60;91.30
73576;DHT22;61859;49.204;8.140;2023-12-20T13:38:51;6.60;91.40
73576;DHT22;61859;49.204;8.140;2023-12-20T13:41:17;6.60;91.80
73576;DHT22;61859;49.204;8.140;2023-12-20T13:43:42;6.50;91.90
73576;DHT22;61859;49.204;8.140;2023-12-20T13:46:08;6.40;92.10
73576;DHT22;61859;49.204;8.140;2023-12-20T13:48:34;6.50;91.90
73576;DHT22;61859;49.204;8.140;2023-12-20T13:51:00;6.50;92.90
73576;DHT22;61859;49.204;8.140;2023-12-20T13:53:25;6.60;93.20
73576;DHT22;61859;49.204;8.140;2023-12-20T13:55:51;6.60;93.60
73576;DHT22;61859;49.204;8.140;2023-12-20T13:58:17;6.50;93.60
73576;DHT22;61859;49.204;8.140;2023-12-20T14:00:42;6.40;93.90
73576;DHT22;61859;49.204;8.140;2023-12-20T14:03:08;6.40;94.10
73576;DHT22;61859;49.204;8.140;2023-12-20T14:05:35;6.40;94.30
73576;DHT22;61859;49.204;8.140;2023-12-20T14:08:00;6.30;94.50
73576;DHT22;61859;49.204;8.140;2023-12-20T14:10:26;6.40;93.90
73576;DHT22;61859;49.204;8.140;2023-12-20T14:12:53;6.30;94.20
73576;DHT22;61859;49.204;8.140;2023-12-20T14:15:18;6.30;94.10
73576;DHT22;61859;49.204;8.140;2023-12-20T14:17:44;6.30;94.10
73576;DHT22;61859;49.204;8.140;2023-12-20T14:20:10;6.30;93.70
73576;DHT22;61859;49.204;8.140;2023-12-20T14:22:38;6.20;93.90
73576;DHT22;61859;49.204;8.140;2023-12-20T14:25:04;6.20;93.40
73576;DHT22;61859;49.204;8.140;2023-12-20T14:27:30;6.30;93.20
73576;DHT22;61859;49.204;8.140;2023-12-20T14:29:56;6.40;92.30
73576;DHT22;61859;49.204;8.140;2023-12-20T14:32:21;6.50;92.60
73576;DHT22;61859;49.204;8.140;2023-12-20T14:34:47;6.70;92.00
73576;DHT22;61859;49.204;8.140;2023-12-20T14:37:13;6.70;91.80
73576;DHT22;61859;49.204;8.140;2023-12-20T14:39:39;6.80;91.60
73576;DHT22;61859;49.204;8.140;2023-12-20T14:42:07;6.90;90.80
73576;DHT22;61859;49.204;8.140;2023-12-20T14:44:36;6.90;90.90
73576;DHT22;61859;49.204;8.140;2023-12-20T14:47:02;6.80;91.00
73576;DHT22;61859;49.204;8.140;2023-12-20T14:49:27;7.00;91.20
73576;DHT22;61859;49.204;8.140;2023-12-20T14:51:53;6.80;91.00
73576;DHT22;61859;49.204;8.140;2023-12-20T14:54:19;6.80;90.90
73576;DHT22;61859;49.204;8.140;2023-12-20T14:56:46;6.70;91.20
73576;DHT22;61859;49.204;8.140;2023-12-20T14:59:12;6.70;91.60
73576;DHT22;61859;49.204;8.140;2023-12-20T15:01:37;6.60;91.60
73576;DHT22;61859;49.204;8.140;2023-12-20T15:04:05;6.70;91.90
73576;DHT22;61859;49.204;8.140;2023-12-20T15:06:31;6.60;92.00
73576;DHT22;61859;49.204;8.140;2023-12-20T15:08:57;6.70;91.70
73576;DHT22;61859;49.204;8.140;2023-12-20T15:11:23;6.50;92.00
73576;DHT22;61859;49.204;8.140;2023-12-20T15:13:48;6.40;92.20
73576;DHT22;61859;49.204;8.140;2023-12-20T15:16:20;6.40;91.90
73576;DHT22;61859;49.204;8.140;2023-12-20T15:18:46;6.20;92.20
73576;DHT22;61859;49.204;8.140;2023-12-20T15:21:11;6.20;92.50
73576;DHT22;61859;49.204;8.140;2023-12-20T15:23:37;6.20;92.90
73576;DHT22;61859;49.204;8.140;2023-12-20T15:26:03;6.20;93.00
73576;DHT22;61859;49.204;8.140;2023-12-20T15:28:30;6.30;93.20
73576;DHT22;61859;49.204;8.140;2023-12-20T15:30:55;6.20;93.10
73576;DHT22;61859;49.204;8.140;2023-12-20T15:33:22;6.30;93.30
73576;DHT22;61859;49.204;8.140;2023-12-20T15:35:48;6.20;93.30
73576;DHT22;61859;49.204;8.140;2023-12-20T15:38:13;6.20;93.60
73576;DHT22;61859;49.204;8.140;2023-12-20T15:40:39;6.30;93.80